sensor_id;sensor_type;location;lat;lon;timestamp;pressure;altitude;pressure_sealevel;temperature;humidity
47706;BME280;33471;52.104;1.318;2023-04-06T00:00:43;101215.98;;;11.97;52.08
47706;BME280;33471;52.104;1.318;2023-04-06T00:03:11;101212.23;;;11.69;52.56
47706;BME280;33471;52.104;1.318;2023-04-06T00:05:38;101210.09;;;11.85;52.49
47706;BME280;33471;52.104;1.318;2023-04-06T00:08:05;101205.69;;;11.12;53.68
47706;BME280;33471;52.104;1.318;2023-04-06T00:10:33;101201.58;;;11.57;52.75
47706;BME280;33471;52.104;1.318;2023-04-06T00:13:00;101197.45;;;11.59;52.40
47706;BME280;33471;52.104;1.318;2023-04-06T00:15:27;101194.40;;;11.33;53.26
47706;BME280;33471;52.104;1.318;2023-04-06T00:17:55;101191.95;;;11.84;52.42
47706;BME280;33471;52.104;1.318;2023-04-06T00:20:22;101189.94;;;12.02;52.26
47706;BME280;33471;52.104;1.318;2023-04-06T00:22:49;101185.38;;;11.67;52.68
47706;BME280;33471;52.104;1.318;2023-04-06T00:25:16;101181.95;;;11.37;53.45
47706;BME280;33471;52.104;1.318;2023-04-06T00:27:43;101180.35;;;11.74;52.30
47706;BME280;33471;52.104;1.318;2023-04-06T00:30:11;101175.26;;;11.10;53.32
47706;BME280;33471;52.104;1.318;2023-04-06T00:32:38;101172.53;;;11.39;53.66
47706;BME280;33471;52.104;1.318;2023-04-06T00:35:07;101169.94;;;10.89;53.91
47706;BME280;33471;52.104;1.318;2023-04-06T00:37:35;101168.04;;;11.52;53.40
47706;BME280;33471;52.104;1.318;2023-04-06T00:40:02;101166.28;;;11.15;53.33
47706;BME280;33471;52.104;1.318;2023-04-06T00:42:29;101162.23;;;11.80;52.63
47706;BME280;33471;52.104;1.318;2023-04-06T00:44:59;101158.21;;;11.37;53.79
47706;BME280;33471;52.104;1.318;2023-04-06T00:47:26;101154.53;;;11.22;54.30
47706;BME280;33471;52.104;1.318;2023-04-06T00:49:54;101151.40;;;11.65;53.52
47706;BME280;33471;52.104;1.318;2023-04-06T00:52:22;101148.47;;;11.64;53.71
47706;BME280;33471;52.104;1.318;2023-04-06T00:54:50;101141.30;;;11.89;52.65
47706;BME280;33471;52.104;1.318;2023-04-06T00:57:18;101137.78;;;12.13;52.24
47706;BME280;33471;52.104;1.318;2023-04-06T00:59:45;101133.26;;;11.78;53.29
47706;BME280;33471;52.104;1.318;2023-04-06T01:02:13;101129.17;;;11.39;53.93
47706;BME280;33471;52.104;1.318;2023-04-06T01:04:40;101130.65;;;11.49;54.25
47706;BME280;33471;52.104;1.318;2023-04-06T01:07:07;101120.52;;;11.44;53.28
47706;BME280;33471;52.104;1.318;2023-04-06T01:09:34;101117.26;;;11.85;53.54
47706;BME280;33471;52.104;1.318;2023-04-06T01:12:02;101115.62;;;11.28;53.71
47706;BME280;33471;52.104;1.318;2023-04-06T01:14:29;101113.55;;;11.52;53.69
47706;BME280;33471;52.104;1.318;2023-04-06T01:16:59;101110.78;;;11.64;54.21
47706;BME280;33471;52.104;1.318;2023-04-06T01:19:27;101105.30;;;11.67;52.90
47706;BME280;33471;52.104;1.318;2023-04-06T01:21:55;101102.04;;;11.60;54.36
47706;BME280;33471;52.104;1.318;2023-04-06T01:24:22;101097.21;;;11.67;54.69
47706;BME280;33471;52.104;1.318;2023-04-06T01:26:49;101094.66;;;11.19;54.74
47706;BME280;33471;52.104;1.318;2023-04-06T01:29:16;101091.46;;;11.60;54.66
47706;BME280;33471;52.104;1.318;2023-04-06T01:31:44;101086.81;;;11.97;53.88
47706;BME280;33471;52.104;1.318;2023-04-06T01:34:11;101084.78;;;11.49;53.87
47706;BME280;33471;52.104;1.318;2023-04-06T01:36:39;101081.45;;;11.89;54.02
47706;BME280;33471;52.104;1.318;2023-04-06T01:39:06;101076.61;;;11.66;53.74
47706;BME280;33471;52.104;1.318;2023-04-06T01:41:34;101070.05;;;11.14;55.54
47706;BME280;33471;52.104;1.318;2023-04-06T01:44:01;101069.77;;;10.55;54.58
47706;BME280;33471;52.104;1.318;2023-04-06T01:46:28;101060.83;;;11.57;54.17
47706;BME280;33471;52.104;1.318;2023-04-06T01:48:56;101056.95;;;12.34;53.23
47706;BME280;33471;52.104;1.318;2023-04-06T01:51:23;101053.13;;;11.96;53.52
47706;BME280;33471;52.104;1.318;2023-04-06T01:53:50;101051.35;;;11.94;53.90
47706;BME280;33471;52.104;1.318;2023-04-06T01:56:17;101046.66;;;11.37;54.57
47706;BME280;33471;52.104;1.318;2023-04-06T01:58:45;101045.47;;;10.90;55.98
47706;BME280;33471;52.104;1.318;2023-04-06T02:01:12;101038.42;;;11.59;53.97
47706;BME280;33471;52.104;1.318;2023-04-06T02:03:40;101036.19;;;11.40;53.37
47706;BME280;33471;52.104;1.318;2023-04-06T02:06:07;101033.97;;;11.79;53.02
47706;BME280;33471;52.104;1.318;2023-04-06T02:08:34;101029.07;;;12.21;53.44
47706;BME280;33471;52.104;1.318;2023-04-06T02:11:01;101025.43;;;11.38;54.07
47706;BME280;33471;52.104;1.318;2023-04-06T02:13:28;101021.53;;;11.85;54.07
47706;BME280;33471;52.104;1.318;2023-04-06T02:15:56;101019.61;;;11.82;54.88
47706;BME280;33471;52.104;1.318;2023-04-06T02:18:23;101015.69;;;11.40;54.73
47706;BME280;33471;52.104;1.318;2023-04-06T02:20:50;101013.64;;;12.06;54.19
47706;BME280;33471;52.104;1.318;2023-04-06T02:23:17;101010.30;;;11.98;53.92
47706;BME280;33471;52.104;1.318;2023-04-06T02:25:44;101010.28;;;11.77;53.98
47706;BME280;33471;52.104;1.318;2023-04-06T02:28:12;101007.65;;;11.70;53.74
47706;BME280;33471;52.104;1.318;2023-04-06T02:30:39;101005.72;;;11.73;54.50
47706;BME280;33471;52.104;1.318;2023-04-06T02:33:06;101001.60;;;11.08;55.31
47706;BME280;33471;52.104;1.318;2023-04-06T02:35:33;100998.30;;;11.83;54.84
47706;BME280;33471;52.104;1.318;2023-04-06T02:38:01;100994.90;;;11.42;54.61
47706;BME280;33471;52.104;1.318;2023-04-06T02:40:28;100991.75;;;11.97;54.59
47706;BME280;33471;52.104;1.318;2023-04-06T02:42:55;100988.71;;;11.84;53.02
47706;BME280;33471;52.104;1.318;2023-04-06T02:45:22;100986.93;;;11.83;54.48
47706;BME280;33471;52.104;1.318;2023-04-06T02:47:49;100984.49;;;11.78;54.93
47706;BME280;33471;52.104;1.318;2023-04-06T02:50:16;100981.47;;;11.92;54.51
47706;BME280;33471;52.104;1.318;2023-04-06T02:52:43;100976.68;;;10.60;55.69
47706;BME280;33471;52.104;1.318;2023-04-06T02:55:11;100979.24;;;10.83;56.89
47706;BME280;33471;52.104;1.318;2023-04-06T02:57:38;100977.44;;;11.30;56.95
47706;BME280;33471;52.104;1.318;2023-04-06T03:00:07;100971.66;;;10.95;56.84
47706;BME280;33471;52.104;1.318;2023-04-06T03:02:34;100964.83;;;11.24;56.34
47706;BME280;33471;52.104;1.318;2023-04-06T03:05:02;100961.06;;;11.16;56.11
47706;BME280;33471;52.104;1.318;2023-04-06T03:07:30;100958.19;;;11.40;55.97
47706;BME280;33471;52.104;1.318;2023-04-06T03:09:58;100955.91;;;11.66;55.46
47706;BME280;33471;52.104;1.318;2023-04-06T03:12:24;100954.29;;;11.68;54.94
47706;BME280;33471;52.104;1.318;2023-04-06T03:14:52;100950.34;;;12.08;54.73
47706;BME280;33471;52.104;1.318;2023-04-06T03:17:19;100944.92;;;11.26;56.19
47706;BME280;33471;52.104;1.318;2023-04-06T03:19:46;100943.68;;;11.28;56.61
47706;BME280;33471;52.104;1.318;2023-04-06T03:22:14;100941.97;;;11.71;55.43
47706;BME280;33471;52.104;1.318;2023-04-06T03:24:41;100940.37;;;11.90;55.04
47706;BME280;33471;52.104;1.318;2023-04-06T03:27:08;100932.62;;;11.62;55.74
47706;BME280;33471;52.104;1.318;2023-04-06T03:29:35;100932.54;;;11.20;57.84
47706;BME280;33471;52.104;1.318;2023-04-06T03:32:02;100926.93;;;10.87;56.41
47706;BME280;33471;52.104;1.318;2023-04-06T03:34:30;100925.16;;;10.99;56.67
47706;BME280;33471;52.104;1.318;2023-04-06T03:36:58;100920.69;;;11.29;57.24
47706;BME280;33471;52.104;1.318;2023-04-06T03:39:25;100917.02;;;11.24;56.63
47706;BME280;33471;52.104;1.318;2023-04-06T03:41:52;100914.48;;;11.07;57.09
47706;BME280;33471;52.104;1.318;2023-04-06T03:44:19;100909.20;;;11.15;56.84
47706;BME280;33471;52.104;1.318;2023-04-06T03:46:46;100903.55;;;11.22;56.79
47706;BME280;33471;52.104;1.318;2023-04-06T03:49:13;100903.37;;;10.98;57.44
47706;BME280;33471;52.104;1.318;2023-04-06T03:51:41;100904.62;;;11.51;56.46
47706;BME280;33471;52.104;1.318;2023-04-06T03:54:08;100901.33;;;11.58;56.10
47706;BME280;33471;52.104;1.318;2023-04-06T03:56:35;100901.06;;;11.71;56.02
47706;BME280;33471;52.104;1.318;2023-04-06T03:59:02;100897.35;;;11.25;55.48
47706;BME280;33471;52.104;1.318;2023-04-06T04:01:29;100893.32;;;11.88;54.38
47706;BME280;33471;52.104;1.318;2023-04-06T04:03:57;100892.99;;;12.18;54.34
47706;BME280;33471;52.104;1.318;2023-04-06T04:06:24;100891.70;;;11.64;55.96
47706;BME280;33471;52.104;1.318;2023-04-06T04:08:51;100884.88;;;11.19;56.23
47706;BME280;33471;52.104;1.318;2023-04-06T04:11:18;100884.30;;;11.96;54.83
47706;BME280;33471;52.104;1.318;2023-04-06T04:13:45;100880.24;;;12.27;54.79
47706;BME280;33471;52.104;1.318;2023-04-06T04:16:12;100876.88;;;12.18;54.48
47706;BME280;33471;52.104;1.318;2023-04-06T04:18:40;100877.79;;;11.50;55.83
47706;BME280;33471;52.104;1.318;2023-04-06T04:21:07;100875.36;;;11.21;56.76
47706;BME280;33471;52.104;1.318;2023-04-06T04:23:34;100874.18;;;11.44;56.10
47706;BME280;33471;52.104;1.318;2023-04-06T04:26:01;100874.25;;;11.75;54.86
47706;BME280;33471;52.104;1.318;2023-04-06T04:28:28;100869.80;;;12.17;54.51
47706;BME280;33471;52.104;1.318;2023-04-06T04:30:55;100870.80;;;11.92;54.45
47706;BME280;33471;52.104;1.318;2023-04-06T04:33:23;100871.58;;;11.58;53.51
47706;BME280;33471;52.104;1.318;2023-04-06T04:35:50;100864.75;;;12.28;53.82
47706;BME280;33471;52.104;1.318;2023-04-06T04:38:17;100861.80;;;12.40;53.62
47706;BME280;33471;52.104;1.318;2023-04-06T04:40:44;100862.86;;;12.54;54.22
47706;BME280;33471;52.104;1.318;2023-04-06T04:43:11;100863.86;;;11.86;55.69
47706;BME280;33471;52.104;1.318;2023-04-06T04:45:38;100862.35;;;11.43;56.21
47706;BME280;33471;52.104;1.318;2023-04-06T04:48:06;100861.80;;;11.45;55.97
47706;BME280;33471;52.104;1.318;2023-04-06T04:50:33;100857.52;;;11.89;55.34
47706;BME280;33471;52.104;1.318;2023-04-06T04:53:01;100853.71;;;11.35;54.51
47706;BME280;33471;52.104;1.318;2023-04-06T04:55:28;100852.05;;;11.44;56.10
47706;BME280;33471;52.104;1.318;2023-04-06T04:57:55;100851.25;;;11.89;55.99
47706;BME280;33471;52.104;1.318;2023-04-06T05:00:22;100849.15;;;11.68;55.71
47706;BME280;33471;52.104;1.318;2023-04-06T05:02:49;100845.43;;;12.21;55.30
47706;BME280;33471;52.104;1.318;2023-04-06T05:05:16;100842.75;;;12.05;54.78
47706;BME280;33471;52.104;1.318;2023-04-06T05:07:43;100841.13;;;11.93;55.06
47706;BME280;33471;52.104;1.318;2023-04-06T05:10:10;100840.31;;;12.21;54.22
47706;BME280;33471;52.104;1.318;2023-04-06T05:12:37;100837.83;;;12.43;53.82
47706;BME280;33471;52.104;1.318;2023-04-06T05:15:06;100838.61;;;11.17;54.32
47706;BME280;33471;52.104;1.318;2023-04-06T05:17:33;100833.97;;;12.15;54.02
47706;BME280;33471;52.104;1.318;2023-04-06T05:20:01;100832.59;;;11.68;54.83
47706;BME280;33471;52.104;1.318;2023-04-06T05:22:28;100824.64;;;12.55;53.87
47706;BME280;33471;52.104;1.318;2023-04-06T05:24:56;100818.14;;;12.60;53.54
47706;BME280;33471;52.104;1.318;2023-04-06T05:27:24;100815.69;;;12.14;53.99
47706;BME280;33471;52.104;1.318;2023-04-06T05:29:51;100813.67;;;12.44;53.84
47706;BME280;33471;52.104;1.318;2023-04-06T05:32:19;100822.05;;;11.97;55.89
47706;BME280;33471;52.104;1.318;2023-04-06T05:34:46;100814.71;;;12.21;54.59
47706;BME280;33471;52.104;1.318;2023-04-06T05:37:13;100817.13;;;12.16;54.94
47706;BME280;33471;52.104;1.318;2023-04-06T05:39:40;100816.80;;;10.92;57.34
47706;BME280;33471;52.104;1.318;2023-04-06T05:42:07;100818.33;;;10.25;58.17
47706;BME280;33471;52.104;1.318;2023-04-06T05:44:34;100818.75;;;10.95;58.30
47706;BME280;33471;52.104;1.318;2023-04-06T05:47:03;100820.36;;;11.31;56.60
47706;BME280;33471;52.104;1.318;2023-04-06T05:49:31;100817.10;;;11.05;58.29
47706;BME280;33471;52.104;1.318;2023-04-06T05:51:59;100817.23;;;10.64;58.72
47706;BME280;33471;52.104;1.318;2023-04-06T05:54:26;100817.74;;;11.58;56.03
47706;BME280;33471;52.104;1.318;2023-04-06T05:56:53;100811.48;;;11.62;56.58
47706;BME280;33471;52.104;1.318;2023-04-06T05:59:19;100807.87;;;12.00;55.64
47706;BME280;33471;52.104;1.318;2023-04-06T06:01:46;100805.20;;;11.79;55.26
47706;BME280;33471;52.104;1.318;2023-04-06T06:04:13;100802.97;;;11.87;55.75
47706;BME280;33471;52.104;1.318;2023-04-06T06:06:40;100802.76;;;12.30;55.72
47706;BME280;33471;52.104;1.318;2023-04-06T06:09:07;100794.61;;;12.20;54.95
47706;BME280;33471;52.104;1.318;2023-04-06T06:11:34;100791.84;;;13.00;54.55
47706;BME280;33471;52.104;1.318;2023-04-06T06:14:02;100791.03;;;11.92;54.00
47706;BME280;33471;52.104;1.318;2023-04-06T06:16:29;100792.26;;;12.89;53.66
47706;BME280;33471;52.104;1.318;2023-04-06T06:18:57;100788.11;;;13.43;52.58
47706;BME280;33471;52.104;1.318;2023-04-06T06:21:24;100787.89;;;12.60;53.85
47706;BME280;33471;52.104;1.318;2023-04-06T06:23:51;100786.81;;;12.73;54.00
47706;BME280;33471;52.104;1.318;2023-04-06T06:26:18;100789.64;;;12.34;53.93
47706;BME280;33471;52.104;1.318;2023-04-06T06:28:46;100788.01;;;12.54;54.92
47706;BME280;33471;52.104;1.318;2023-04-06T06:31:13;100785.38;;;12.30;55.06
47706;BME280;33471;52.104;1.318;2023-04-06T06:33:41;100790.01;;;12.31;54.81
47706;BME280;33471;52.104;1.318;2023-04-06T06:36:09;100790.13;;;12.13;55.49
47706;BME280;33471;52.104;1.318;2023-04-06T06:38:36;100783.70;;;12.22;55.35
47706;BME280;33471;52.104;1.318;2023-04-06T06:41:03;100782.40;;;12.08;54.67
47706;BME280;33471;52.104;1.318;2023-04-06T06:43:30;100779.30;;;12.02;55.85
47706;BME280;33471;52.104;1.318;2023-04-06T06:45:58;100788.00;;;11.42;58.25
47706;BME280;33471;52.104;1.318;2023-04-06T06:48:25;100783.05;;;11.51;56.50
47706;BME280;33471;52.104;1.318;2023-04-06T06:50:52;100782.74;;;11.77;57.07
47706;BME280;33471;52.104;1.318;2023-04-06T06:53:19;100781.07;;;11.47;57.76
47706;BME280;33471;52.104;1.318;2023-04-06T06:55:46;100781.23;;;11.72;57.28
47706;BME280;33471;52.104;1.318;2023-04-06T06:58:14;100782.65;;;11.75;57.19
47706;BME280;33471;52.104;1.318;2023-04-06T07:00:41;100774.86;;;12.04;56.10
47706;BME280;33471;52.104;1.318;2023-04-06T07:03:09;100775.44;;;12.22;55.12
47706;BME280;33471;52.104;1.318;2023-04-06T07:05:36;100778.13;;;11.66;57.14
47706;BME280;33471;52.104;1.318;2023-04-06T07:08:03;100770.83;;;11.49;56.74
47706;BME280;33471;52.104;1.318;2023-04-06T07:10:31;100772.51;;;11.71;56.55
47706;BME280;33471;52.104;1.318;2023-04-06T07:12:58;100769.47;;;11.83;56.81
47706;BME280;33471;52.104;1.318;2023-04-06T07:15:25;100768.39;;;12.37;55.70
47706;BME280;33471;52.104;1.318;2023-04-06T07:17:52;100767.61;;;12.71;56.23
47706;BME280;33471;52.104;1.318;2023-04-06T07:20:19;100768.43;;;12.30;55.84
47706;BME280;33471;52.104;1.318;2023-04-06T07:22:47;100771.54;;;11.53;58.40
47706;BME280;33471;52.104;1.318;2023-04-06T07:25:14;100770.27;;;11.73;58.66
47706;BME280;33471;52.104;1.318;2023-04-06T07:27:42;100764.80;;;11.87;57.13
47706;BME280;33471;52.104;1.318;2023-04-06T07:30:09;100765.91;;;11.25;58.85
47706;BME280;33471;52.104;1.318;2023-04-06T07:32:37;100767.74;;;12.03;56.80
47706;BME280;33471;52.104;1.318;2023-04-06T07:35:04;100768.47;;;11.08;57.93
47706;BME280;33471;52.104;1.318;2023-04-06T07:37:31;100767.48;;;12.05;57.31
47706;BME280;33471;52.104;1.318;2023-04-06T07:39:59;100766.02;;;12.02;56.59
47706;BME280;33471;52.104;1.318;2023-04-06T07:42:26;100765.47;;;11.91;57.23
47706;BME280;33471;52.104;1.318;2023-04-06T07:44:54;100763.37;;;12.34;57.27
47706;BME280;33471;52.104;1.318;2023-04-06T07:47:22;100765.35;;;12.74;55.70
47706;BME280;33471;52.104;1.318;2023-04-06T07:49:49;100766.79;;;12.62;55.95
47706;BME280;33471;52.104;1.318;2023-04-06T07:52:17;100767.51;;;12.60;55.86
47706;BME280;33471;52.104;1.318;2023-04-06T07:54:44;100769.94;;;12.03;56.64
47706;BME280;33471;52.104;1.318;2023-04-06T07:57:11;100769.41;;;11.86;57.10
47706;BME280;33471;52.104;1.318;2023-04-06T07:59:38;100774.98;;;11.80;58.00
47706;BME280;33471;52.104;1.318;2023-04-06T08:02:05;100773.26;;;11.77;57.52
47706;BME280;33471;52.104;1.318;2023-04-06T08:04:33;100773.47;;;12.47;57.10
47706;BME280;33471;52.104;1.318;2023-04-06T08:07:00;100771.42;;;11.35;58.07
47706;BME280;33471;52.104;1.318;2023-04-06T08:09:28;100768.11;;;12.04;57.48
47706;BME280;33471;52.104;1.318;2023-04-06T08:11:55;100763.35;;;11.87;57.41
47706;BME280;33471;52.104;1.318;2023-04-06T08:14:22;100761.80;;;11.78;58.21
47706;BME280;33471;52.104;1.318;2023-04-06T08:16:49;100758.66;;;12.89;55.73
47706;BME280;33471;52.104;1.318;2023-04-06T08:19:16;100760.31;;;12.93;55.11
47706;BME280;33471;52.104;1.318;2023-04-06T08:21:43;100759.82;;;12.85;55.68
47706;BME280;33471;52.104;1.318;2023-04-06T08:24:10;100758.34;;;12.14;56.82
47706;BME280;33471;52.104;1.318;2023-04-06T08:26:38;100759.43;;;12.37;57.51
47706;BME280;33471;52.104;1.318;2023-04-06T08:29:05;100766.67;;;12.13;56.51
47706;BME280;33471;52.104;1.318;2023-04-06T08:31:33;100764.33;;;12.13;58.19
47706;BME280;33471;52.104;1.318;2023-04-06T08:34:01;100768.27;;;12.14;56.59
47706;BME280;33471;52.104;1.318;2023-04-06T08:36:28;100781.13;;;10.50;62.07
47706;BME280;33471;52.104;1.318;2023-04-06T08:38:56;100773.22;;;12.17;57.80
47706;BME280;33471;52.104;1.318;2023-04-06T08:41:23;100773.10;;;12.00;57.99
47706;BME280;33471;52.104;1.318;2023-04-06T08:43:54;100774.01;;;12.17;57.90
47706;BME280;33471;52.104;1.318;2023-04-06T08:46:24;100777.34;;;13.01;55.34
47706;BME280;33471;52.104;1.318;2023-04-06T08:48:51;100777.44;;;12.36;57.34
47706;BME280;33471;52.104;1.318;2023-04-06T08:51:19;100773.42;;;11.54;59.83
47706;BME280;33471;52.104;1.318;2023-04-06T08:53:46;100779.59;;;11.62;59.97
47706;BME280;33471;52.104;1.318;2023-04-06T08:56:13;100774.78;;;12.55;57.72
47706;BME280;33471;52.104;1.318;2023-04-06T08:58:41;100776.08;;;12.15;58.76
47706;BME280;33471;52.104;1.318;2023-04-06T09:01:11;100777.14;;;11.27;60.99
47706;BME280;33471;52.104;1.318;2023-04-06T09:03:40;100772.64;;;12.88;57.66
47706;BME280;33471;52.104;1.318;2023-04-06T09:06:08;100773.45;;;13.52;55.81
47706;BME280;33471;52.104;1.318;2023-04-06T09:08:38;100768.98;;;14.20;54.48
47706;BME280;33471;52.104;1.318;2023-04-06T09:11:05;100766.26;;;13.76;54.00
47706;BME280;33471;52.104;1.318;2023-04-06T09:13:45;100763.17;;;13.10;56.56
47706;BME280;33471;52.104;1.318;2023-04-06T09:16:13;100766.11;;;12.20;57.85
47706;BME280;33471;52.104;1.318;2023-04-06T09:18:40;100765.28;;;13.13;56.20
47706;BME280;33471;52.104;1.318;2023-04-06T09:21:07;100773.46;;;12.33;57.76
47706;BME280;33471;52.104;1.318;2023-04-06T09:23:35;100772.19;;;12.66;57.32
47706;BME280;33471;52.104;1.318;2023-04-06T09:26:06;100769.53;;;12.92;54.61
47706;BME280;33471;52.104;1.318;2023-04-06T09:28:45;100774.05;;;13.60;54.34
47706;BME280;33471;52.104;1.318;2023-04-06T09:31:13;100774.73;;;13.40;54.88
47706;BME280;33471;52.104;1.318;2023-04-06T09:33:43;100774.91;;;11.67;60.46
47706;BME280;33471;52.104;1.318;2023-04-06T09:36:11;100775.08;;;11.70;59.41
47706;BME280;33471;52.104;1.318;2023-04-06T09:38:50;100777.71;;;12.15;59.33
47706;BME280;33471;52.104;1.318;2023-04-06T09:41:21;100777.33;;;11.39;62.02
47706;BME280;33471;52.104;1.318;2023-04-06T09:43:50;100776.26;;;11.60;61.16
47706;BME280;33471;52.104;1.318;2023-04-06T09:46:21;100776.86;;;12.73;57.82
47706;BME280;33471;52.104;1.318;2023-04-06T09:48:48;100773.53;;;13.20;56.38
47706;BME280;33471;52.104;1.318;2023-04-06T09:51:18;100769.21;;;13.04;56.37
47706;BME280;33471;52.104;1.318;2023-04-06T09:53:52;100766.49;;;13.18;55.90
47706;BME280;33471;52.104;1.318;2023-04-06T09:56:22;100766.24;;;13.44;55.17
47706;BME280;33471;52.104;1.318;2023-04-06T09:58:57;100765.58;;;13.71;54.18
47706;BME280;33471;52.104;1.318;2023-04-06T10:01:29;100768.26;;;13.03;55.90
47706;BME280;33471;52.104;1.318;2023-04-06T10:04:09;100764.50;;;14.15;53.82
47706;BME280;33471;52.104;1.318;2023-04-06T10:06:39;100767.31;;;13.60;54.48
47706;BME280;33471;52.104;1.318;2023-04-06T10:09:08;100768.84;;;12.83;54.96
47706;BME280;33471;52.104;1.318;2023-04-06T10:11:36;100771.55;;;12.16;59.11
47706;BME280;33471;52.104;1.318;2023-04-06T10:14:03;100764.24;;;11.51;58.91
47706;BME280;33471;52.104;1.318;2023-04-06T10:16:31;100765.92;;;12.62;57.53
47706;BME280;33471;52.104;1.318;2023-04-06T10:19:04;100760.58;;;13.94;54.82
47706;BME280;33471;52.104;1.318;2023-04-06T10:21:34;100760.73;;;13.43;56.67
47706;BME280;33471;52.104;1.318;2023-04-06T10:24:08;100759.85;;;14.29;52.95
47706;BME280;33471;52.104;1.318;2023-04-06T10:26:36;100760.32;;;13.67;54.14
47706;BME280;33471;52.104;1.318;2023-04-06T10:29:03;100756.72;;;13.54;53.58
47706;BME280;33471;52.104;1.318;2023-04-06T10:31:31;100756.12;;;14.73;52.19
47706;BME280;33471;52.104;1.318;2023-04-06T10:33:59;100753.54;;;14.21;53.19
47706;BME280;33471;52.104;1.318;2023-04-06T10:36:31;100756.00;;;14.22;53.42
47706;BME280;33471;52.104;1.318;2023-04-06T10:39:01;100757.30;;;13.60;53.74
47706;BME280;33471;52.104;1.318;2023-04-06T10:41:33;100757.03;;;13.09;55.55
47706;BME280;33471;52.104;1.318;2023-04-06T10:44:02;100758.35;;;12.16;56.88
47706;BME280;33471;52.104;1.318;2023-04-06T10:46:30;100759.29;;;12.21;58.12
47706;BME280;33471;52.104;1.318;2023-04-06T10:49:10;100750.59;;;14.12;54.76
47706;BME280;33471;52.104;1.318;2023-04-06T10:51:38;100754.00;;;12.30;57.81
47706;BME280;33471;52.104;1.318;2023-04-06T10:54:06;100754.61;;;11.88;59.00
47706;BME280;33471;52.104;1.318;2023-04-06T10:56:37;100754.67;;;11.51;60.64
47706;BME280;33471;52.104;1.318;2023-04-06T10:59:05;100755.24;;;11.88;59.27
47706;BME280;33471;52.104;1.318;2023-04-06T11:01:33;100756.59;;;12.99;56.67
47706;BME280;33471;52.104;1.318;2023-04-06T11:04:01;100759.42;;;12.37;57.91
47706;BME280;33471;52.104;1.318;2023-04-06T11:06:30;100756.67;;;12.99;56.44
47706;BME280;33471;52.104;1.318;2023-04-06T11:08:58;100751.54;;;13.19;56.70
47706;BME280;33471;52.104;1.318;2023-04-06T11:11:26;100750.85;;;13.39;55.96
47706;BME280;33471;52.104;1.318;2023-04-06T11:13:55;100748.61;;;13.80;55.51
47706;BME280;33471;52.104;1.318;2023-04-06T11:16:23;100744.76;;;13.91;55.71
47706;BME280;33471;52.104;1.318;2023-04-06T11:18:55;100748.23;;;13.47;55.98
47706;BME280;33471;52.104;1.318;2023-04-06T11:21:40;100749.50;;;13.43;54.29
47706;BME280;33471;52.104;1.318;2023-04-06T11:24:09;100748.31;;;12.92;55.73
47706;BME280;33471;52.104;1.318;2023-04-06T11:26:39;100745.57;;;13.70;54.69
47706;BME280;33471;52.104;1.318;2023-04-06T11:29:06;100743.81;;;13.30;55.20
47706;BME280;33471;52.104;1.318;2023-04-06T11:31:39;100750.86;;;13.59;54.30
47706;BME280;33471;52.104;1.318;2023-04-06T11:34:11;100752.02;;;12.82;57.00
47706;BME280;33471;52.104;1.318;2023-04-06T11:36:41;100754.23;;;12.38;58.82
47706;BME280;33471;52.104;1.318;2023-04-06T11:39:08;100750.70;;;12.65;58.46
47706;BME280;33471;52.104;1.318;2023-04-06T11:41:36;100760.62;;;12.40;57.71
47706;BME280;33471;52.104;1.318;2023-04-06T11:44:03;100764.56;;;12.04;56.76
47706;BME280;33471;52.104;1.318;2023-04-06T11:46:30;100761.91;;;12.57;54.96
47706;BME280;33471;52.104;1.318;2023-04-06T11:48:59;100766.90;;;13.12;53.95
47706;BME280;33471;52.104;1.318;2023-04-06T11:51:27;100766.80;;;13.31;53.36
47706;BME280;33471;52.104;1.318;2023-04-06T11:53:54;100769.41;;;13.72;52.97
47706;BME280;33471;52.104;1.318;2023-04-06T11:56:25;100771.27;;;13.86;52.93
47706;BME280;33471;52.104;1.318;2023-04-06T11:58:54;100771.98;;;13.35;53.46
47706;BME280;33471;52.104;1.318;2023-04-06T12:01:22;100774.48;;;12.39;55.70
47706;BME280;33471;52.104;1.318;2023-04-06T12:03:50;100774.12;;;11.93;55.69
47706;BME280;33471;52.104;1.318;2023-04-06T12:06:18;100777.34;;;11.31;59.06
47706;BME280;33471;52.104;1.318;2023-04-06T12:08:45;100776.63;;;11.92;58.07
47706;BME280;33471;52.104;1.318;2023-04-06T12:11:13;100775.25;;;12.13;56.31
47706;BME280;33471;52.104;1.318;2023-04-06T12:13:40;100780.21;;;12.23;55.34
47706;BME280;33471;52.104;1.318;2023-04-06T12:16:07;100784.23;;;11.41;57.91
47706;BME280;33471;52.104;1.318;2023-04-06T12:18:34;100778.90;;;11.75;55.70
47706;BME280;33471;52.104;1.318;2023-04-06T12:21:01;100782.29;;;11.66;55.40
47706;BME280;33471;52.104;1.318;2023-04-06T12:23:28;100777.29;;;12.38;54.73
47706;BME280;33471;52.104;1.318;2023-04-06T12:25:56;100777.49;;;13.39;52.48
47706;BME280;33471;52.104;1.318;2023-04-06T12:28:23;100777.42;;;12.87;53.17
47706;BME280;33471;52.104;1.318;2023-04-06T12:30:50;100789.24;;;13.22;52.10
47706;BME280;33471;52.104;1.318;2023-04-06T12:33:18;100789.73;;;14.09;49.44
47706;BME280;33471;52.104;1.318;2023-04-06T12:35:45;100790.93;;;13.14;51.35
47706;BME280;33471;52.104;1.318;2023-04-06T12:38:12;100788.50;;;13.02;49.76
47706;BME280;33471;52.104;1.318;2023-04-06T12:40:39;100791.10;;;13.22;49.52
47706;BME280;33471;52.104;1.318;2023-04-06T12:43:06;100798.10;;;12.85;49.42
47706;BME280;33471;52.104;1.318;2023-04-06T12:45:33;100791.08;;;14.44;46.82
47706;BME280;33471;52.104;1.318;2023-04-06T12:48:00;100796.24;;;13.20;47.91
47706;BME280;33471;52.104;1.318;2023-04-06T12:50:27;100795.49;;;13.31;48.18
47706;BME280;33471;52.104;1.318;2023-04-06T12:52:54;100794.96;;;13.69;46.05